Time;durP1;ratioP1;P1;durP2;ratioP2;P2;SDS_P1;SDS_P2;PMS_P1;PMS_P2;Temp;Humidity;BMP_temperature;BMP_pressure;BME280_temperature;BME280_humidity;BME280_pressure;Samples;Min_cycle;Max_cycle;Signal;HPM_P1;HPM_P2
2022/11/19 00:01:07;;;;;;;29.48;14.43;;;;;;;;;;6247276;23;20004;-81
2022/11/19 00:03:34;;;;;;;28.00;12.75;;;;;;;;;;6220512;23;20015;-81
2022/11/19 00:06:07;;;;;;;29.75;13.40;;;;;;;;;;6248453;23;20000;-81
2022/11/19 00:08:34;;;;;;;24.67;11.95;;;;;;;;;;6221036;23;20000;-80
2022/11/19 00:11:04;;;;;;;23.30;11.77;;;;;;;;;;6248438;23;20004;-81
2022/11/19 00:13:30;;;;;;;26.25;12.55;;;;;;;;;;6248061;23;20023;-81
2022/11/19 00:16:00;;;;;;;25.67;11.95;;;;;;;;;;6248770;23;20298;-83
2022/11/19 00:18:26;;;;;;;31.67;14.40;;;;;;;;;;6220442;23;20012;-83
2022/11/19 00:20:54;;;;;;;28.27;13.18;;;;;;;;;;6247563;23;20401;-82
2022/11/19 00:23:20;;;;;;;26.55;13.23;;;;;;;;;;6220920;23;20000;-83
2022/11/19 00:25:46;;;;;;;31.88;14.15;;;;;;;;;;6250398;23;20011;-83
2022/11/19 00:28:12;;;;;;;27.52;13.15;;;;;;;;;;6251364;23;20047;-81
2022/11/19 00:30:38;;;;;;;31.95;14.05;;;;;;;;;;6223174;23;20428;-82
2022/11/19 00:33:04;;;;;;;26.85;12.52;;;;;;;;;;6248419;23;20003;-81
2022/11/19 00:35:30;;;;;;;30.42;14.38;;;;;;;;;;6247078;23;20007;-82
2022/11/19 00:37:56;;;;;;;30.15;14.50;;;;;;;;;;6247233;23;20324;-83
2022/11/19 00:40:22;;;;;;;27.98;13.55;;;;;;;;;;6221018;23;20054;-83
2022/11/19 00:43:45;;;;;;;26.77;12.13;;;;;;;;;;6249304;23;20008;-81
2022/11/19 00:45:34;;;;;;;31.50;13.50;;;;;;;;;;6271125;22;20020;-82
2022/11/19 00:48:00;;;;;;;30.08;12.90;;;;;;;;;;6252277;22;19999;-82
2022/11/19 00:50:26;;;;;;;27.95;13.68;;;;;;;;;;6279509;22;20000;-82
2022/11/19 00:52:52;;;;;;;25.85;12.80;;;;;;;;;;6251505;22;20050;-82
2022/11/19 00:55:18;;;;;;;32.72;13.80;;;;;;;;;;6276705;22;20000;-82
2022/11/19 00:57:44;;;;;;;27.58;12.82;;;;;;;;;;6277998;22;20003;-83
2022/11/19 01:00:10;;;;;;;29.30;13.18;;;;;;;;;;6278741;22;20000;-82
2022/11/19 01:02:36;;;;;;;33.33;13.27;;;;;;;;;;6279065;22;20004;-82
2022/11/19 01:05:02;;;;;;;29.85;12.25;;;;;;;;;;6278952;22;20012;-83
2022/11/19 01:07:28;;;;;;;27.52;14.20;;;;;;;;;;6251307;22;19995;-82
2022/11/19 01:09:54;;;;;;;31.15;13.88;;;;;;;;;;6251226;22;20385;-82
2022/11/19 01:12:20;;;;;;;27.10;12.25;;;;;;;;;;6251535;22;20031;-82
2022/11/19 01:14:46;;;;;;;33.35;13.73;;;;;;;;;;6251289;22;20219;-82
2022/11/19 01:17:12;;;;;;;28.35;12.50;;;;;;;;;;6278740;22;20053;-82
2022/11/19 01:19:38;;;;;;;26.95;13.25;;;;;;;;;;6251192;22;20007;-82
2022/11/19 01:22:04;;;;;;;32.85;13.07;;;;;;;;;;6278724;22;20533;-82
2022/11/19 01:24:30;;;;;;;30.80;14.80;;;;;;;;;;6278559;22;20000;-82
2022/11/19 01:26:56;;;;;;;37.50;14.25;;;;;;;;;;6278993;22;20000;-82
2022/11/19 01:29:22;;;;;;;31.60;14.98;;;;;;;;;;6278219;22;20007;-82
2022/11/19 01:31:48;;;;;;;32.08;16.20;;;;;;;;;;6278063;22;19996;-82
2022/11/19 01:34:14;;;;;;;31.88;14.27;;;;;;;;;;6278406;22;20000;-82
2022/11/19 01:36:40;;;;;;;27.70;12.57;;;;;;;;;;6278925;22;20379;-82
2022/11/19 01:39:06;;;;;;;32.25;14.10;;;;;;;;;;6250978;22;19999;-80
2022/11/19 01:41:32;;;;;;;30.95;13.13;;;;;;;;;;6278554;22;20022;-80
2022/11/19 01:44:06;;;;;;;31.35;13.93;;;;;;;;;;6277127;22;19996;-80
2022/11/19 01:46:35;;;;;;;28.13;13.45;;;;;;;;;;6278366;22;20000;-80
2022/11/19 01:49:11;;;;;;;29.38;13.27;;;;;;;;;;6279041;22;20000;-80
2022/11/19 01:51:43;;;;;;;31.83;13.68;;;;;;;;;;6281101;22;20086;-80
2022/11/19 01:54:20;;;;;;;30.20;12.85;;;;;;;;;;6253817;22;20010;-79
2022/11/19 01:56:46;;;;;;;29.95;13.00;;;;;;;;;;6290533;22;19995;-82
2022/11/19 01:59:15;;;;;;;34.90;13.60;;;;;;;;;;6262085;22;20004;-79
2022/11/19 02:01:42;;;;;;;31.60;15.05;;;;;;;;;;6282424;22;20018;-80
2022/11/19 02:04:09;;;;;;;28.77;12.70;;;;;;;;;;6251862;22;20004;-81
2022/11/19 02:06:35;;;;;;;29.50;14.05;;;;;;;;;;6278795;22;20443;-80
2022/11/19 02:09:01;;;;;;;31.70;14.05;;;;;;;;;;6278286;22;20003;-80
2022/11/19 02:11:37;;;;;;;26.15;13.27;;;;;;;;;;6251603;22;20011;-80
2022/11/19 02:14:08;;;;;;;32.92;13.65;;;;;;;;;;6279409;22;20079;-82
2022/11/19 02:16:41;;;;;;;33.33;13.63;;;;;;;;;;6278364;22;19999;-83
2022/11/19 02:19:26;;;;;;;29.35;13.85;;;;;;;;;;6279635;22;20019;-82
2022/11/19 02:22:14;;;;;;;32.92;15.07;;;;;;;;;;6252034;22;19996;-82
2022/11/19 02:24:53;;;;;;;38.08;15.63;;;;;;;;;;6281175;22;20394;-82
2022/11/19 02:27:19;;;;;;;36.45;14.00;;;;;;;;;;6296483;22;19996;-82
2022/11/19 02:30:21;;;;;;;34.15;15.25;;;;;;;;;;6298710;22;20007;-83
2022/11/19 02:32:55;;;;;;;37.42;16.63;;;;;;;;;;6132492;23;20006;-79
2022/11/19 02:35:43;;;;;;;32.30;15.77;;;;;;;;;;6126620;23;20006;-80
2022/11/19 02:38:09;;;;;;;37.08;15.52;;;;;;;;;;6125244;23;20106;-82
2022/11/19 02:40:35;;;;;;;35.60;16.08;;;;;;;;;;6124480;23;20010;-81
2022/11/19 02:43:31;;;;;;;36.47;16.33;;;;;;;;;;6124646;23;20013;-80
2022/11/19 02:46:01;;;;;;;39.53;15.15;;;;;;;;;;6089295;23;20050;-82
2022/11/19 02:48:30;;;;;;;34.03;15.95;;;;;;;;;;6071645;23;20097;-82
2022/11/19 02:51:01;;;;;;;37.85;15.25;;;;;;;;;;6071727;23;20006;-82
2022/11/19 02:53:27;;;;;;;32.78;14.25;;;;;;;;;;6095342;23;19999;-83
2022/11/19 02:56:11;;;;;;;35.20;15.73;;;;;;;;;;6071390;23;20014;-82
2022/11/19 03:04:31;;;;;;;33.35;15.27;;;;;;;;;;6068703;23;20014;-80
2022/11/19 03:06:59;;;;;;;37.53;16.25;;;;;;;;;;6157660;23;20000;-80
2022/11/19 03:09:25;;;;;;;33.00;15.35;;;;;;;;;;6247676;23;20079;-80
2022/11/19 03:11:54;;;;;;;35.30;15.73;;;;;;;;;;6247097;23;19996;-80
2022/11/19 03:17:14;;;;;;;34.25;14.50;;;;;;;;;;6248095;23;20019;-80
2022/11/19 03:19:43;;;;;;;37.88;15.77;;;;;;;;;;6247879;23;19996;-80
2022/11/19 03:22:09;;;;;;;35.53;15.85;;;;;;;;;;6247588;23;20008;-80
2022/11/19 03:24:44;;;;;;;37.85;15.50;;;;;;;;;;6247546;23;20004;-81
2022/11/19 03:27:09;;;;;;;33.55;14.88;;;;;;;;;;6219995;23;20004;-81
2022/11/19 03:29:38;;;;;;;38.70;15.82;;;;;;;;;;6248251;23;20007;-81
2022/11/19 03:32:06;;;;;;;34.97;15.52;;;;;;;;;;6246591;23;19996;-81
2022/11/19 03:34:33;;;;;;;32.15;13.45;;;;;;;;;;6219998;23;20008;-81
2022/11/19 03:37:00;;;;;;;33.90;14.63;;;;;;;;;;6245807;23;20004;-81
2022/11/19 03:39:27;;;;;;;34.03;13.60;;;;;;;;;;6246048;23;20011;-80
2022/11/19 03:41:54;;;;;;;34.08;15.68;;;;;;;;;;6220003;23;20016;-81
2022/11/19 03:44:23;;;;;;;36.00;14.02;;;;;;;;;;6253626;22;20007;-81
2022/11/19 03:46:52;;;;;;;30.20;12.70;;;;;;;;;;6276857;22;19999;-81
2022/11/19 03:49:21;;;;;;;29.15;12.50;;;;;;;;;;6250157;22;20040;-81
2022/11/19 03:51:49;;;;;;;31.63;12.77;;;;;;;;;;6249816;22;20340;-81
2022/11/19 03:54:15;;;;;;;30.67;12.23;;;;;;;;;;6254589;22;20352;-80
2022/11/19 03:56:42;;;;;;;32.97;12.88;;;;;;;;;;6279668;22;20000;-81
2022/11/19 03:59:10;;;;;;;34.20;12.25;;;;;;;;;;6277211;22;20337;-82
2022/11/19 04:01:36;;;;;;;28.90;13.30;;;;;;;;;;6250560;22;20010;-80
2022/11/19 04:06:47;;;;;;;29.77;12.75;;;;;;;;;;6276906;22;20394;-81
2022/11/19 04:09:13;;;;;;;32.03;12.82;;;;;;;;;;6277282;22;19999;-81
2022/11/19 04:11:39;;;;;;;38.00;13.10;;;;;;;;;;6277038;22;20078;-81
2022/11/19 04:14:05;;;;;;;30.05;12.25;;;;;;;;;;6250069;22;20058;-81
2022/11/19 04:16:31;;;;;;;25.15;11.57;;;;;;;;;;6277121;22;20008;-80
2022/11/19 04:18:57;;;;;;;27.77;12.02;;;;;;;;;;6249945;22;20011;-81
2022/11/19 04:21:23;;;;;;;23.92;11.90;;;;;;;;;;6277446;22;20003;-81
2022/11/19 04:23:49;;;;;;;26.58;12.60;;;;;;;;;;6276992;22;20006;-82
2022/11/19 04:26:15;;;;;;;29.15;13.15;;;;;;;;;;6277032;22;20006;-80
2022/11/19 04:28:41;;;;;;;29.40;14.05;;;;;;;;;;6277076;22;20031;-81
2022/11/19 04:31:07;;;;;;;24.55;11.63;;;;;;;;;;6249243;22;19999;-82
2022/11/19 04:33:33;;;;;;;27.60;12.02;;;;;;;;;;6251383;22;20006;-81
2022/11/19 04:35:59;;;;;;;24.63;11.50;;;;;;;;;;6251206;22;20437;-82
2022/11/19 04:38:25;;;;;;;25.27;11.13;;;;;;;;;;6278808;22;20007;-81
2022/11/19 04:40:51;;;;;;;29.23;12.60;;;;;;;;;;6251932;22;20008;-81
2022/11/19 04:43:17;;;;;;;29.85;14.40;;;;;;;;;;6252294;22;20521;-82
2022/11/19 04:45:43;;;;;;;23.77;11.13;;;;;;;;;;6278846;22;20041;-82
2022/11/19 04:48:09;;;;;;;25.52;12.27;;;;;;;;;;6278591;22;20000;-81
2022/11/19 04:50:35;;;;;;;26.38;11.75;;;;;;;;;;6279829;22;19996;-82
2022/11/19 04:53:01;;;;;;;25.00;11.48;;;;;;;;;;6251018;22;20011;-81
2022/11/19 04:55:27;;;;;;;27.58;11.63;;;;;;;;;;6279368;22;20359;-82
2022/11/19 04:57:53;;;;;;;23.98;10.27;;;;;;;;;;6251928;22;20007;-81
2022/11/19 05:00:19;;;;;;;28.88;11.15;;;;;;;;;;6282050;22;20011;-82
2022/11/19 05:02:45;;;;;;;23.63;10.85;;;;;;;;;;6278856;22;20004;-82
2022/11/19 05:05:11;;;;;;;26.80;10.95;;;;;;;;;;6279105;22;19996;-82
2022/11/19 05:07:37;;;;;;;25.80;10.93;;;;;;;;;;6251035;22;20042;-80
2022/11/19 05:10:03;;;;;;;24.23;11.45;;;;;;;;;;6251363;22;20030;-81
2022/11/19 05:12:29;;;;;;;20.63;9.95;;;;;;;;;;6252050;22;20004;-80
2022/11/19 05:14:55;;;;;;;27.08;10.98;;;;;;;;;;6252464;22;20387;-81
2022/11/19 05:17:21;;;;;;;24.55;11.32;;;;;;;;;;6277583;22;19996;-81
2022/11/19 05:19:47;;;;;;;20.92;9.85;;;;;;;;;;6279418;22;20053;-82
2022/11/19 05:22:13;;;;;;;24.42;11.35;;;;;;;;;;6251797;22;20004;-80
2022/11/19 05:24:39;;;;;;;23.77;11.60;;;;;;;;;;6251625;22;20458;-81
2022/11/19 05:27:05;;;;;;;23.02;10.40;;;;;;;;;;6250958;22;19999;-81
2022/11/19 05:29:31;;;;;;;24.55;9.75;;;;;;;;;;6251555;22;19996;-81
2022/11/19 05:31:57;;;;;;;23.08;10.38;;;;;;;;;;6252630;22;20007;-81
2022/11/19 05:34:24;;;;;;;19.77;9.82;;;;;;;;;;6251211;22;19999;-81
2022/11/19 05:36:50;;;;;;;23.95;10.98;;;;;;;;;;6251292;22;20505;-80
2022/11/19 05:39:16;;;;;;;22.08;11.05;;;;;;;;;;6251871;22;20021;-81
2022/11/19 05:41:42;;;;;;;21.30;9.70;;;;;;;;;;6276541;22;19999;-82
2022/11/19 05:44:08;;;;;;;23.48;9.77;;;;;;;;;;6250456;22;20023;-83
2022/11/19 05:46:34;;;;;;;20.88;9.50;;;;;;;;;;6278962;22;20003;-81
2022/11/19 05:49:00;;;;;;;22.95;11.10;;;;;;;;;;6281627;22;20022;-81
2022/11/19 05:51:26;;;;;;;26.00;11.15;;;;;;;;;;6257205;22;20004;-81
2022/11/19 05:53:52;;;;;;;25.60;10.18;;;;;;;;;;6279819;22;20007;-81
2022/11/19 05:56:18;;;;;;;22.52;10.23;;;;;;;;;;6252040;22;20061;-81
2022/11/19 05:58:44;;;;;;;22.15;9.65;;;;;;;;;;6279973;22;20102;-82
2022/11/19 06:01:10;;;;;;;20.08;9.60;;;;;;;;;;6278788;22;20008;-81
2022/11/19 06:03:36;;;;;;;21.35;10.30;;;;;;;;;;6277686;22;19999;-82
2022/11/19 06:06:02;;;;;;;23.80;11.77;;;;;;;;;;6277927;22;19999;-82
2022/11/19 06:08:28;;;;;;;18.23;8.85;;;;;;;;;;6276635;22;20007;-81
2022/11/19 06:10:54;;;;;;;21.98;9.32;;;;;;;;;;6278357;22;19996;-81
2022/11/19 06:13:20;;;;;;;24.50;9.48;;;;;;;;;;6278222;22;20010;-81
2022/11/19 06:15:46;;;;;;;25.20;10.80;;;;;;;;;;6277948;22;20004;-82
2022/11/19 06:18:13;;;;;;;19.92;9.63;;;;;;;;;;6279130;22;20078;-82
2022/11/19 06:20:39;;;;;;;24.23;10.38;;;;;;;;;;6252774;22;20031;-82
2022/11/19 06:23:05;;;;;;;21.05;9.50;;;;;;;;;;6276877;22;20034;-81
2022/11/19 06:25:31;;;;;;;22.42;9.43;;;;;;;;;;6276293;22;20000;-81
2022/11/19 06:27:57;;;;;;;21.95;9.20;;;;;;;;;;6248748;22;20000;-81
2022/11/19 06:30:23;;;;;;;23.48;9.18;;;;;;;;;;6248156;22;20067;-83
2022/11/19 06:32:49;;;;;;;18.10;9.02;;;;;;;;;;6275764;22;20079;-82
2022/11/19 06:35:18;;;;;;;20.05;9.02;;;;;;;;;;6248394;22;20031;-83
2022/11/19 06:37:47;;;;;;;23.50;9.50;;;;;;;;;;6275643;22;20439;-80
2022/11/19 06:40:14;;;;;;;20.05;9.65;;;;;;;;;;6278230;22;20038;-81
2022/11/19 06:42:40;;;;;;;23.00;10.63;;;;;;;;;;6249065;22;20164;-82
2022/11/19 06:45:08;;;;;;;23.95;8.70;;;;;;;;;;6251274;22;20011;-81
2022/11/19 06:47:34;;;;;;;20.23;9.27;;;;;;;;;;6277872;22;20008;-82
2022/11/19 06:50:00;;;;;;;23.63;9.73;;;;;;;;;;6249103;22;20126;-81
2022/11/19 06:52:26;;;;;;;22.23;9.38;;;;;;;;;;6278238;22;20074;-81
2022/11/19 06:54:52;;;;;;;19.98;9.88;;;;;;;;;;6277802;22;20012;-82
2022/11/19 06:57:19;;;;;;;20.83;8.90;;;;;;;;;;6279176;22;20328;-81
2022/11/19 06:59:44;;;;;;;24.98;11.27;;;;;;;;;;6277162;22;20097;-81
2022/11/19 07:02:11;;;;;;;22.73;9.20;;;;;;;;;;6278120;22;19999;-82
2022/11/19 07:04:37;;;;;;;23.75;10.05;;;;;;;;;;6279344;22;20327;-82
2022/11/19 07:07:04;;;;;;;20.98;9.88;;;;;;;;;;6251160;22;20008;-81
2022/11/19 07:09:30;;;;;;;16.65;8.05;;;;;;;;;;6277510;22;20003;-82
2022/11/19 07:11:56;;;;;;;23.52;9.25;;;;;;;;;;6251309;22;20004;-81
2022/11/19 07:14:22;;;;;;;20.23;8.70;;;;;;;;;;6277883;22;19996;-82
2022/11/19 07:16:48;;;;;;;21.65;10.00;;;;;;;;;;6250922;22;20054;-81
2022/11/19 07:19:14;;;;;;;17.75;7.93;;;;;;;;;;6278356;22;20003;-81
2022/11/19 07:21:40;;;;;;;20.80;8.38;;;;;;;;;;6277845;22;20018;-82
2022/11/19 07:24:07;;;;;;;22.30;9.35;;;;;;;;;;6277708;22;19992;-82
2022/11/19 07:26:33;;;;;;;18.10;7.43;;;;;;;;;;6250977;22;20012;-82
2022/11/19 07:29:04;;;;;;;23.25;9.25;;;;;;;;;;6278485;22;19996;-82
2022/11/19 07:31:30;;;;;;;22.50;8.95;;;;;;;;;;6250797;22;20023;-82
2022/11/19 07:33:56;;;;;;;24.88;9.88;;;;;;;;;;6279140;22;20439;-83
2022/11/19 07:36:22;;;;;;;21.30;9.13;;;;;;;;;;6251631;22;20103;-81
2022/11/19 07:38:51;;;;;;;22.23;8.98;;;;;;;;;;6251513;22;19999;-82
2022/11/19 07:44:01;;;;;;;17.60;8.63;;;;;;;;;;6281468;22;20097;-82
2022/11/19 07:46:27;;;;;;;17.33;7.93;;;;;;;;;;6278883;22;19999;-82
2022/11/19 07:48:54;;;;;;;18.27;8.27;;;;;;;;;;6251728;22;20087;-82
2022/11/19 07:51:20;;;;;;;19.13;8.32;;;;;;;;;;6251757;22;20000;-82
2022/11/19 07:53:46;;;;;;;17.00;8.43;;;;;;;;;;6251347;22;19999;-81
2022/11/19 07:56:12;;;;;;;17.17;8.40;;;;;;;;;;6277974;22;20064;-80
2022/11/19 07:58:38;;;;;;;17.08;8.20;;;;;;;;;;6250997;22;20008;-82
2022/11/19 08:01:23;;;;;;;19.73;8.43;;;;;;;;;;6277071;22;20078;-82
2022/11/19 08:03:50;;;;;;;19.42;8.18;;;;;;;;;;6278414;22;20010;-82
2022/11/19 08:06:17;;;;;;;17.63;6.85;;;;;;;;;;6250897;22;20435;-82
2022/11/19 08:08:43;;;;;;;20.20;8.98;;;;;;;;;;6278813;22;20006;-82
2022/11/19 08:11:10;;;;;;;14.48;6.45;;;;;;;;;;6251485;22;20004;-82
2022/11/19 08:13:38;;;;;;;15.15;6.70;;;;;;;;;;6278090;22;20047;-81
2022/11/19 08:16:05;;;;;;;17.30;8.75;;;;;;;;;;6279297;22;20026;-82
2022/11/19 08:18:31;;;;;;;16.02;6.80;;;;;;;;;;6281192;22;20003;-81
2022/11/19 08:21:05;;;;;;;18.17;7.45;;;;;;;;;;6250945;22;20011;-81
2022/11/19 08:23:32;;;;;;;16.73;7.00;;;;;;;;;;6251085;22;20010;-82
2022/11/19 08:25:58;;;;;;;18.60;9.10;;;;;;;;;;6251773;22;20008;-82
2022/11/19 08:28:24;;;;;;;18.83;8.55;;;;;;;;;;6279427;22;20030;-81
2022/11/19 08:30:50;;;;;;;15.85;7.88;;;;;;;;;;6251381;22;20004;-82
2022/11/19 08:33:16;;;;;;;17.60;9.48;;;;;;;;;;6253453;22;20129;-82
2022/11/19 08:35:42;;;;;;;15.57;8.02;;;;;;;;;;6282776;22;20432;-82
2022/11/19 08:38:09;;;;;;;18.77;7.75;;;;;;;;;;6255416;22;20008;-82
2022/11/19 08:40:34;;;;;;;22.83;9.80;;;;;;;;;;6282474;22;20053;-82
2022/11/19 08:43:01;;;;;;;22.10;10.00;;;;;;;;;;6278060;22;20007;-83
2022/11/19 08:45:29;;;;;;;23.52;9.75;;;;;;;;;;6278065;22;20020;-82
2022/11/19 08:47:56;;;;;;;33.03;15.82;;;;;;;;;;6250801;22;20047;-82
2022/11/19 08:50:22;;;;;;;25.95;13.00;;;;;;;;;;6278735;22;20006;-82
2022/11/19 08:52:55;;;;;;;20.38;8.93;;;;;;;;;;6251720;22;20400;-83
2022/11/19 08:55:22;;;;;;;17.25;7.97;;;;;;;;;;6277622;22;20061;-82
2022/11/19 08:57:48;;;;;;;17.88;7.70;;;;;;;;;;6251544;22;20317;-82
2022/11/19 09:00:14;;;;;;;14.95;6.85;;;;;;;;;;6277481;22;20612;-81
2022/11/19 09:02:40;;;;;;;15.38;7.20;;;;;;;;;;6285569;22;20003;-81
2022/11/19 09:05:06;;;;;;;14.55;6.97;;;;;;;;;;6289065;22;20003;-81
2022/11/19 09:07:32;;;;;;;15.02;6.50;;;;;;;;;;6259038;22;20003;-82
2022/11/19 09:09:58;;;;;;;15.18;6.75;;;;;;;;;;6255057;22;20496;-82
2022/11/19 09:12:24;;;;;;;15.77;7.25;;;;;;;;;;6278555;22;20083;-82
2022/11/19 09:14:50;;;;;;;16.88;7.55;;;;;;;;;;6279228;22;20050;-82
2022/11/19 09:17:16;;;;;;;16.20;7.30;;;;;;;;;;6278851;22;19995;-82
2022/11/19 09:19:42;;;;;;;13.95;6.65;;;;;;;;;;6253610;22;20003;-82
2022/11/19 09:22:08;;;;;;;14.68;6.57;;;;;;;;;;6281383;22;20010;-81
2022/11/19 09:24:34;;;;;;;14.45;6.47;;;;;;;;;;6253863;22;20007;-81
2022/11/19 09:27:01;;;;;;;14.13;6.20;;;;;;;;;;6253574;22;20418;-81
2022/11/19 09:29:27;;;;;;;15.52;6.65;;;;;;;;;;6280630;22;20403;-81
2022/11/19 09:31:53;;;;;;;16.13;6.65;;;;;;;;;;6281254;22;20042;-82
2022/11/19 09:34:19;;;;;;;13.65;6.32;;;;;;;;;;6283990;22;20002;-81
2022/11/19 09:36:45;;;;;;;14.40;7.30;;;;;;;;;;6254086;22;20308;-81
2022/11/19 09:39:11;;;;;;;11.85;6.70;;;;;;;;;;6253314;22;20007;-81
2022/11/19 09:41:48;;;;;;;13.98;6.25;;;;;;;;;;6279891;22;20006;-81
2022/11/19 09:44:33;;;;;;;15.20;6.00;;;;;;;;;;6280524;22;20038;-81
2022/11/19 09:47:02;;;;;;;12.80;5.68;;;;;;;;;;6280573;22;20030;-82
2022/11/19 09:49:30;;;;;;;14.63;7.22;;;;;;;;;;6280411;22;20336;-82
2022/11/19 09:51:59;;;;;;;11.48;5.72;;;;;;;;;;6279817;22;20003;-82
2022/11/19 09:54:25;;;;;;;16.63;6.70;;;;;;;;;;6280088;22;20003;-82
2022/11/19 09:56:53;;;;;;;14.82;6.90;;;;;;;;;;6280724;22;20000;-82
2022/11/19 09:59:24;;;;;;;13.70;6.40;;;;;;;;;;6253413;22;20092;-82
2022/11/19 10:01:50;;;;;;;16.67;7.40;;;;;;;;;;6280669;22;19999;-82
2022/11/19 10:04:18;;;;;;;16.65;7.45;;;;;;;;;;6252758;22;20007;-82
2022/11/19 10:06:44;;;;;;;12.82;6.30;;;;;;;;;;6280038;22;20011;-82
2022/11/19 10:09:29;;;;;;;14.18;7.30;;;;;;;;;;6279639;22;20004;-83
2022/11/19 10:12:25;;;;;;;17.95;6.88;;;;;;;;;;6253268;22;19999;-81
2022/11/19 10:14:59;;;;;;;13.75;6.47;;;;;;;;;;6248780;22;20078;-82
2022/11/19 10:17:41;;;;;;;16.10;7.22;;;;;;;;;;6254063;22;20003;-81
2022/11/19 10:20:13;;;;;;;15.75;8.63;;;;;;;;;;6253132;22;20004;-83
2022/11/19 10:22:45;;;;;;;18.63;7.35;;;;;;;;;;6279488;22;20339;-83
2022/11/19 10:25:11;;;;;;;14.50;6.80;;;;;;;;;;6280534;22;19999;-82
2022/11/19 10:27:54;;;;;;;15.05;6.97;;;;;;;;;;6252461;22;20027;-81
2022/11/19 10:30:22;;;;;;;15.13;6.45;;;;;;;;;;6253370;22;20074;-81
2022/11/19 10:33:02;;;;;;;16.85;7.53;;;;;;;;;;6253264;22;20006;-83
2022/11/19 10:35:31;;;;;;;14.43;7.00;;;;;;;;;;6279637;22;20006;-82
2022/11/19 10:38:09;;;;;;;14.70;7.00;;;;;;;;;;6252358;22;20000;-82
2022/11/19 10:40:41;;;;;;;14.95;7.13;;;;;;;;;;6251969;22;20059;-82
2022/11/19 10:43:14;;;;;;;17.98;7.85;;;;;;;;;;6279838;22;20324;-82
2022/11/19 10:45:40;;;;;;;13.85;6.63;;;;;;;;;;6253145;22;20023;-80
2022/11/19 10:48:12;;;;;;;23.95;8.70;;;;;;;;;;6279996;22;19996;-80
2022/11/19 10:50:39;;;;;;;14.75;6.47;;;;;;;;;;6282740;22;20023;-83
2022/11/19 10:53:27;;;;;;;16.60;7.95;;;;;;;;;;6254815;22;20004;-81
2022/11/19 10:55:55;;;;;;;15.73;6.20;;;;;;;;;;6255401;22;20507;-81
2022/11/19 10:58:33;;;;;;;16.10;6.75;;;;;;;;;;6279801;22;20000;-82
2022/11/19 11:01:00;;;;;;;11.88;6.05;;;;;;;;;;6254823;22;20003;-81
2022/11/19 11:03:36;;;;;;;15.55;6.97;;;;;;;;;;6284002;22;20086;-81
2022/11/19 11:06:08;;;;;;;14.30;7.05;;;;;;;;;;6286894;22;20000;-81
2022/11/19 11:08:47;;;;;;;15.65;6.68;;;;;;;;;;6258859;22;20003;-79
2022/11/19 11:11:18;;;;;;;14.85;6.57;;;;;;;;;;6258020;22;20033;-80
2022/11/19 11:16:47;;;;;;;12.90;6.28;;;;;;;;;;6287177;22;20570;-81
2022/11/19 11:19:22;;;;;;;15.30;6.30;;;;;;;;;;6263070;22;20024;-79
2022/11/19 11:21:52;;;;;;;14.20;6.30;;;;;;;;;;6259619;22;20081;-81
2022/11/19 11:24:18;;;;;;;12.73;6.75;;;;;;;;;;6259252;22;20015;-83
2022/11/19 11:26:44;;;;;;;13.20;6.72;;;;;;;;;;6257801;22;20123;-80
2022/11/19 11:29:13;;;;;;;12.20;6.18;;;;;;;;;;6261102;22;20524;-81
2022/11/19 11:31:44;;;;;;;14.07;7.00;;;;;;;;;;6261166;22;20062;-81
2022/11/19 11:34:30;;;;;;;15.18;7.03;;;;;;;;;;6260655;22;20011;-81
2022/11/19 11:36:57;;;;;;;14.93;7.22;;;;;;;;;;6253260;22;20008;-82
2022/11/19 11:39:28;;;;;;;12.75;6.93;;;;;;;;;;6253369;22;20086;-80
2022/11/19 11:41:55;;;;;;;13.75;6.90;;;;;;;;;;6280580;22;20008;-80
2022/11/19 11:44:23;;;;;;;13.68;5.85;;;;;;;;;;6280653;22;20385;-80
2022/11/19 11:46:50;;;;;;;12.88;6.63;;;;;;;;;;6259395;22;20008;-81
2022/11/19 11:49:32;;;;;;;14.10;6.05;;;;;;;;;;6260042;22;20007;-81
2022/11/19 11:52:04;;;;;;;17.88;7.40;;;;;;;;;;6260115;22;20007;-80
2022/11/19 11:54:30;;;;;;;15.10;6.15;;;;;;;;;;6258948;22;20007;-80
2022/11/19 11:57:15;;;;;;;14.15;6.47;;;;;;;;;;6258171;22;20074;-82
2022/11/19 11:59:41;;;;;;;9.93;5.65;;;;;;;;;;6281895;22;20432;-81
2022/11/19 12:02:17;;;;;;;14.95;6.68;;;;;;;;;;6285003;22;19996;-79
2022/11/19 12:04:43;;;;;;;14.40;6.00;;;;;;;;;;6284113;22;20160;-81
2022/11/19 12:07:17;;;;;;;12.73;5.90;;;;;;;;;;6281714;22;20000;-79
2022/11/19 12:10:11;;;;;;;12.93;6.30;;;;;;;;;;6283705;22;20006;-81
2022/11/19 12:12:55;;;;;;;14.43;6.55;;;;;;;;;;6256943;22;20011;-82
2022/11/19 12:15:31;;;;;;;14.23;6.68;;;;;;;;;;6255818;22;20053;-80
2022/11/19 12:18:03;;;;;;;13.82;6.60;;;;;;;;;;6255057;22;19999;-82
2022/11/19 12:20:49;;;;;;;11.35;6.30;;;;;;;;;;6286026;22;20004;-81
2022/11/19 12:23:18;;;;;;;14.68;6.90;;;;;;;;;;6229852;22;20012;-83
2022/11/19 12:25:44;;;;;;;13.15;6.00;;;;;;;;;;6252268;22;20008;-82
2022/11/19 12:28:14;;;;;;;16.13;7.82;;;;;;;;;;6252617;22;19992;-83
2022/11/19 12:31:02;;;;;;;13.75;6.93;;;;;;;;;;6278471;22;20436;-82
2022/11/19 12:33:28;;;;;;;15.35;7.25;;;;;;;;;;6285208;22;20007;-82
2022/11/19 12:36:17;;;;;;;13.27;6.53;;;;;;;;;;6259580;22;19996;-81
2022/11/19 12:38:49;;;;;;;15.35;7.18;;;;;;;;;;6284683;22;20217;-81
2022/11/19 12:41:34;;;;;;;15.02;7.28;;;;;;;;;;6259333;22;20007;-81
2022/11/19 12:44:01;;;;;;;12.60;6.47;;;;;;;;;;6256054;22;20057;-80
2022/11/19 12:46:30;;;;;;;13.95;6.78;;;;;;;;;;6280120;22;20158;-79
2022/11/19 12:48:56;;;;;;;12.80;6.13;;;;;;;;;;6252943;22;20000;-81
2022/11/19 12:51:31;;;;;;;15.25;7.28;;;;;;;;;;6279249;22;20023;-82
2022/11/19 12:54:03;;;;;;;13.55;5.78;;;;;;;;;;6282366;22;19995;-81
2022/11/19 12:56:53;;;;;;;15.02;7.20;;;;;;;;;;6254437;22;20378;-82
2022/11/19 12:59:37;;;;;;;14.65;7.65;;;;;;;;;;6281308;22;20000;-82
2022/11/19 13:02:07;;;;;;;12.43;6.43;;;;;;;;;;6253825;22;20014;-80
2022/11/19 13:04:42;;;;;;;12.50;5.85;;;;;;;;;;6252058;22;20057;-81
2022/11/19 13:07:19;;;;;;;13.18;6.22;;;;;;;;;;6252556;22;20092;-80
2022/11/19 13:10:05;;;;;;;12.85;5.97;;;;;;;;;;6279746;22;19996;-81
2022/11/19 13:12:42;;;;;;;16.45;7.50;;;;;;;;;;6252877;22;20000;-81
2022/11/19 13:15:14;;;;;;;12.85;5.88;;;;;;;;;;6251734;22;20026;-81
2022/11/19 13:17:43;;;;;;;13.97;6.77;;;;;;;;;;6252070;22;20039;-83
2022/11/19 13:20:18;;;;;;;15.65;6.90;;;;;;;;;;6251455;22;20241;-82
2022/11/19 13:22:46;;;;;;;14.00;6.72;;;;;;;;;;6252986;22;20443;-81
2022/11/19 13:25:32;;;;;;;15.52;7.10;;;;;;;;;;6278093;22;20046;-80
2022/11/19 13:28:01;;;;;;;13.73;5.72;;;;;;;;;;6251508;22;20080;-82
2022/11/19 13:30:28;;;;;;;11.82;6.60;;;;;;;;;;6252042;22;20428;-82
2022/11/19 13:32:54;;;;;;;13.95;6.22;;;;;;;;;;6278603;22;20012;-81
2022/11/19 13:35:22;;;;;;;14.88;6.95;;;;;;;;;;6252134;22;20088;-81
2022/11/19 13:38:04;;;;;;;13.35;6.45;;;;;;;;;;6252230;22;20014;-81
2022/11/19 13:40:41;;;;;;;13.05;6.53;;;;;;;;;;6278971;22;20004;-81
2022/11/19 13:46:10;;;;;;;17.75;7.95;;;;;;;;;;6278599;22;20054;-81
2022/11/19 13:48:44;;;;;;;15.07;8.35;;;;;;;;;;6278346;22;19998;-81
2022/11/19 13:51:17;;;;;;;15.75;7.57;;;;;;;;;;6278574;22;20074;-81
2022/11/19 13:53:44;;;;;;;14.23;6.88;;;;;;;;;;6250737;22;20007;-81
2022/11/19 13:56:14;;;;;;;16.90;7.93;;;;;;;;;;6279178;22;20038;-81
2022/11/19 13:58:45;;;;;;;16.88;8.07;;;;;;;;;;6279229;22;20057;-81
2022/11/19 14:01:17;;;;;;;14.55;7.32;;;;;;;;;;6278667;22;20008;-81
2022/11/19 14:03:58;;;;;;;15.23;7.28;;;;;;;;;;6251741;22;20011;-81
2022/11/19 14:06:30;;;;;;;13.02;6.05;;;;;;;;;;6278540;22;20061;-81
2022/11/19 14:09:04;;;;;;;16.13;7.03;;;;;;;;;;6251610;22;20038;-81
2022/11/19 14:11:39;;;;;;;15.50;6.47;;;;;;;;;;6252430;22;20004;-80
2022/11/19 14:26:39;;;;;;;13.77;7.47;;;;;;;;;;6277425;22;20015;-80
2022/11/19 14:29:24;;;;;;;15.25;6.03;;;;;;;;;;6250783;22;19996;-81
2022/11/19 14:32:02;;;;;;;16.65;6.45;;;;;;;;;;6278636;22;20000;-82
2022/11/19 14:34:29;;;;;;;14.00;6.82;;;;;;;;;;6277562;22;19996;-83
2022/11/19 14:36:56;;;;;;;14.38;7.35;;;;;;;;;;6251420;22;20085;-81
2022/11/19 14:39:38;;;;;;;17.33;7.78;;;;;;;;;;6251137;22;20061;-80
2022/11/19 14:42:15;;;;;;;12.70;6.35;;;;;;;;;;6278783;22;20004;-81
2022/11/19 14:44:42;;;;;;;13.05;6.07;;;;;;;;;;6253328;22;20016;-79
2022/11/19 14:47:23;;;;;;;16.60;8.13;;;;;;;;;;6282099;22;20083;-81
2022/11/19 14:49:49;;;;;;;15.50;6.05;;;;;;;;;;6256119;22;19999;-80
2022/11/19 14:52:26;;;;;;;14.27;6.65;;;;;;;;;;6252709;22;20368;-82
2022/11/19 14:54:57;;;;;;;15.57;7.40;;;;;;;;;;6280569;22;20008;-83
2022/11/19 14:57:26;;;;;;;14.07;6.78;;;;;;;;;;6251320;22;20000;-80
2022/11/19 14:59:55;;;;;;;15.15;7.45;;;;;;;;;;6251675;22;20087;-79
2022/11/19 15:02:23;;;;;;;16.88;8.00;;;;;;;;;;6277163;22;20000;-80
2022/11/19 15:04:53;;;;;;;14.95;7.13;;;;;;;;;;6278325;22;20000;-81
2022/11/19 15:07:33;;;;;;;14.27;7.30;;;;;;;;;;6251159;22;20000;-81
2022/11/19 15:10:05;;;;;;;14.70;8.73;;;;;;;;;;6251642;22;20360;-81